createdAt,value
2022-10-31T00:01:19.617Z,8.02
2022-10-31T00:03:46.870Z,7.95
2022-10-31T00:06:13.626Z,7.68
2022-10-31T00:08:40.465Z,8.07
2022-10-31T00:11:11.497Z,8.03
2022-10-31T00:13:38.827Z,7.86
2022-10-31T00:16:17.598Z,7.88
2022-10-31T00:18:44.780Z,7.77
2022-10-31T00:21:11.720Z,7.71
2022-10-31T00:23:38.615Z,7.53
2022-10-31T00:26:06.484Z,7.47
2022-10-31T00:28:34.040Z,7.36
2022-10-31T00:31:06.724Z,7.70
2022-10-31T00:33:37.712Z,7.55
2022-10-31T00:36:07.162Z,7.42
2022-10-31T00:38:34.518Z,7.45
2022-10-31T00:41:01.399Z,7.58
2022-10-31T00:43:29.241Z,7.54
2022-10-31T00:45:56.006Z,7.35
2022-10-31T00:48:22.894Z,7.36
2022-10-31T00:50:49.701Z,7.33
2022-10-31T00:53:16.542Z,7.57
2022-10-31T00:55:43.538Z,7.37
2022-10-31T00:58:10.398Z,7.39
2022-10-31T01:00:37.258Z,7.33
2022-10-31T01:03:04.301Z,7.36
2022-10-31T01:05:31.572Z,7.38
2022-10-31T01:07:58.377Z,7.40
2022-10-31T01:10:25.253Z,7.22
2022-10-31T01:12:52.297Z,7.13
2022-10-31T01:15:22.709Z,7.41
2022-10-31T01:17:50.393Z,7.20
2022-10-31T01:20:18.518Z,7.07
2022-10-31T01:22:45.685Z,7.03
2022-10-31T01:25:12.778Z,7.08
2022-10-31T01:27:39.653Z,7.07
2022-10-31T01:30:07.360Z,6.88
2022-10-31T01:32:34.268Z,6.91
2022-10-31T01:35:01.031Z,6.91
2022-10-31T01:37:27.821Z,6.77
2022-10-31T01:39:54.640Z,7.07
2022-10-31T01:42:24.690Z,7.11
2022-10-31T01:45:03.065Z,7.03
2022-10-31T01:47:44.919Z,6.83
2022-10-31T01:50:23.236Z,6.78
2022-10-31T01:52:52.985Z,6.83
2022-10-31T01:55:30.037Z,6.84
2022-10-31T01:58:11.409Z,7.04
2022-10-31T02:00:50.254Z,6.86
2022-10-31T02:03:18.581Z,6.55
2022-10-31T02:05:45.953Z,6.86
2022-10-31T02:08:28.710Z,6.89
2022-10-31T02:10:58.450Z,6.68
2022-10-31T02:15:59.216Z,6.49
2022-10-31T02:18:30.268Z,6.50
2022-10-31T02:21:07.136Z,6.70
2022-10-31T02:23:47.977Z,6.67
2022-10-31T02:26:53.201Z,6.63
2022-10-31T02:29:57.315Z,6.61
2022-10-31T02:33:07.254Z,6.61
2022-10-31T02:35:55.777Z,6.46
2022-10-31T02:38:44.685Z,6.34
2022-10-31T02:41:39.053Z,6.60
2022-10-31T02:44:16.646Z,6.39
2022-10-31T02:47:06.950Z,6.49
2022-10-31T02:49:47.657Z,6.55
2022-10-31T02:52:24.960Z,6.24
2022-10-31T02:54:54.086Z,6.24
2022-10-31T02:57:29.223Z,6.22
2022-10-31T03:00:09.126Z,6.29
2022-10-31T03:02:57.147Z,6.43
2022-10-31T03:05:52.828Z,6.30
2022-10-31T03:08:33.450Z,6.36
2022-10-31T03:11:04.666Z,6.26
2022-10-31T03:13:42.343Z,6.32
2022-10-31T03:16:49.946Z,6.31
2022-10-31T03:19:41.861Z,6.29
2022-10-31T03:22:32.530Z,6.28
2022-10-31T03:25:01.355Z,6.11
2022-10-31T03:27:33.264Z,5.98
2022-10-31T03:30:05.805Z,6.01
2022-10-31T03:32:49.750Z,5.88
2022-10-31T03:35:22.242Z,6.03
2022-10-31T03:37:52.795Z,5.71
2022-10-31T03:40:23.146Z,5.76
2022-10-31T03:43:01.974Z,5.84
2022-10-31T03:45:31.985Z,5.97
2022-10-31T03:48:02.122Z,5.81
2022-10-31T03:50:43.428Z,5.83
2022-10-31T03:54:34.929Z,5.92
2022-10-31T03:57:39.099Z,5.68
2022-10-31T04:00:15.184Z,5.56
2022-10-31T04:02:48.655Z,5.70
2022-10-31T04:05:17.917Z,5.83
2022-10-31T04:07:48.853Z,5.78
2022-10-31T04:10:17.295Z,5.78
2022-10-31T04:12:51.886Z,5.76
2022-10-31T04:15:19.440Z,5.69
2022-10-31T04:17:48.714Z,5.60
2022-10-31T04:20:17.935Z,5.73
2022-10-31T04:22:45.166Z,5.63
2022-10-31T04:25:12.034Z,5.67
2022-10-31T04:27:38.848Z,5.39
2022-10-31T04:30:06.500Z,5.44
2022-10-31T04:32:33.316Z,5.54
2022-10-31T04:35:00.133Z,5.31
2022-10-31T04:37:26.930Z,5.35
2022-10-31T04:39:53.715Z,5.53
2022-10-31T04:42:20.502Z,5.55
2022-10-31T04:44:47.283Z,5.38
2022-10-31T04:47:14.052Z,5.34
2022-10-31T04:49:40.865Z,5.51
2022-10-31T04:52:09.199Z,5.49
2022-10-31T04:54:36.050Z,5.49
2022-10-31T04:57:04.409Z,5.61
2022-10-31T04:59:31.303Z,5.47
2022-10-31T05:01:58.198Z,5.51
2022-10-31T05:04:25.035Z,5.32
2022-10-31T05:06:51.906Z,5.62
2022-10-31T05:09:18.723Z,5.56
2022-10-31T05:11:45.593Z,5.45
2022-10-31T05:14:12.453Z,5.51
2022-10-31T05:16:39.229Z,5.42
2022-10-31T05:19:06.290Z,5.51
2022-10-31T05:21:33.158Z,5.33
2022-10-31T05:23:59.998Z,5.25
2022-10-31T05:26:27.002Z,5.34
2022-10-31T05:28:53.749Z,5.36
2022-10-31T05:31:20.579Z,5.10
2022-10-31T05:33:48.493Z,4.93
2022-10-31T05:36:15.355Z,5.25
2022-10-31T05:38:42.109Z,5.49
2022-10-31T05:41:08.912Z,5.19
2022-10-31T05:43:35.696Z,5.02
2022-10-31T05:46:02.513Z,5.17
2022-10-31T05:48:29.260Z,5.35
2022-10-31T05:50:56.054Z,5.33
2022-10-31T05:53:22.841Z,4.83
2022-10-31T05:55:49.661Z,5.25
2022-10-31T05:58:16.432Z,5.13
2022-10-31T06:00:44.229Z,5.00
2022-10-31T06:03:11.208Z,5.15
2022-10-31T06:05:37.994Z,5.08
2022-10-31T06:08:05.212Z,5.28
2022-10-31T06:10:32.143Z,5.24
2022-10-31T06:12:59.164Z,5.12
2022-10-31T06:15:26.003Z,4.94
2022-10-31T06:18:02.117Z,5.29
2022-10-31T06:20:29.362Z,5.27
2022-10-31T06:22:56.166Z,4.96
2022-10-31T06:25:23.006Z,5.11
2022-10-31T06:27:49.857Z,5.09
2022-10-31T06:30:17.997Z,4.87
2022-10-31T06:32:44.782Z,5.07
2022-10-31T06:35:11.603Z,4.98
2022-10-31T06:37:38.873Z,4.81
2022-10-31T06:40:06.567Z,4.85
2022-10-31T06:42:33.370Z,5.19
2022-10-31T06:45:00.143Z,5.26
2022-10-31T06:47:29.778Z,5.32
2022-10-31T06:49:57.545Z,5.21
2022-10-31T06:52:24.618Z,5.39
2022-10-31T06:54:51.545Z,5.45
2022-10-31T06:57:18.401Z,5.38
2022-10-31T06:59:54.485Z,5.40
2022-10-31T07:02:21.330Z,5.58
2022-10-31T07:04:54.160Z,5.64
2022-10-31T07:07:22.382Z,5.67
2022-10-31T07:09:49.241Z,5.71
2022-10-31T07:12:21.120Z,5.79
2022-10-31T07:14:47.991Z,5.68
2022-10-31T07:17:14.745Z,5.77
2022-10-31T07:19:43.622Z,5.92
2022-10-31T07:22:10.403Z,6.04
2022-10-31T07:24:37.222Z,5.96
2022-10-31T07:27:04.089Z,6.10
2022-10-31T07:29:30.842Z,5.95
2022-10-31T07:31:57.718Z,6.18
2022-10-31T07:34:24.570Z,6.07
2022-10-31T07:36:52.182Z,6.18
2022-10-31T07:39:19.040Z,6.04
2022-10-31T07:41:46.840Z,6.35
2022-10-31T07:44:13.608Z,6.32
2022-10-31T07:46:40.370Z,6.68
2022-10-31T07:49:07.998Z,6.70
2022-10-31T07:51:34.745Z,6.96
2022-10-31T07:54:02.444Z,6.94
2022-10-31T07:56:30.278Z,7.08
2022-10-31T07:58:57.172Z,7.47
2022-10-31T08:01:24.151Z,7.41
2022-10-31T08:03:51.017Z,7.70
2022-10-31T08:06:17.931Z,7.75
2022-10-31T08:08:44.740Z,8.03
2022-10-31T08:11:11.576Z,8.06
2022-10-31T08:13:38.440Z,8.28
2022-10-31T08:16:08.975Z,8.34
2022-10-31T08:18:38.587Z,8.34
2022-10-31T08:21:16.166Z,8.43
2022-10-31T08:23:43.201Z,8.44
2022-10-31T08:26:09.988Z,8.87
2022-10-31T08:28:55.941Z,9.04
2022-10-31T08:31:31.990Z,9.06
2022-10-31T08:34:00.262Z,9.50
2022-10-31T08:36:29.235Z,9.61
2022-10-31T08:39:01.650Z,9.89
2022-10-31T08:41:29.045Z,9.93
2022-10-31T08:43:55.866Z,9.97
2022-10-31T08:46:22.784Z,10.55
2022-10-31T08:48:50.396Z,10.48
2022-10-31T08:51:17.488Z,10.49
2022-10-31T08:53:44.289Z,10.71
2022-10-31T08:56:11.114Z,10.85
2022-10-31T08:58:40.524Z,11.10
2022-10-31T09:01:07.541Z,10.87
2022-10-31T09:03:34.564Z,11.18
2022-10-31T09:06:04.273Z,11.45
2022-10-31T09:08:32.357Z,11.50
2022-10-31T09:11:00.775Z,11.60
2022-10-31T09:13:28.453Z,11.70
2022-10-31T09:15:57.497Z,11.88
2022-10-31T09:18:28.944Z,12.04
2022-10-31T09:20:59.161Z,12.18
2022-10-31T09:23:28.964Z,12.32
2022-10-31T09:25:56.465Z,12.50
2022-10-31T09:28:25.570Z,12.60
2022-10-31T09:30:54.599Z,12.50
2022-10-31T09:33:22.606Z,12.99
2022-10-31T09:35:50.243Z,13.05
2022-10-31T09:38:20.624Z,12.94
2022-10-31T09:40:56.924Z,13.28
2022-10-31T09:43:48.141Z,13.59
2022-10-31T09:46:41.948Z,13.78
2022-10-31T09:49:36.358Z,13.98
2022-10-31T09:52:14.944Z,13.88
2022-10-31T09:54:57.788Z,14.39
2022-10-31T09:57:35.772Z,14.61
2022-10-31T10:00:06.668Z,14.84
2022-10-31T10:02:43.941Z,15.04
2022-10-31T10:05:20.004Z,15.38
2022-10-31T10:08:02.578Z,15.45
2022-10-31T10:11:06.873Z,15.93
2022-10-31T10:14:07.260Z,16.24
2022-10-31T10:16:59.420Z,16.24
2022-10-31T10:19:50.349Z,16.45
2022-10-31T10:22:29.031Z,16.75
2022-10-31T10:25:14.142Z,17.04
2022-10-31T10:28:08.652Z,17.28
2022-10-31T10:30:45.589Z,17.50
2022-10-31T10:33:22.288Z,17.66
2022-10-31T10:35:58.519Z,17.74
2022-10-31T10:38:37.832Z,18.07
2022-10-31T10:41:16.091Z,18.18
2022-10-31T10:43:43.046Z,18.28
2022-10-31T10:46:57.104Z,18.69
2022-10-31T10:49:32.591Z,18.91
2022-10-31T10:52:41.775Z,18.94
2022-10-31T10:56:05.015Z,19.04
2022-10-31T10:58:31.732Z,19.34
2022-10-31T11:00:58.637Z,19.40
2022-10-31T11:03:27.569Z,19.72
2022-10-31T11:06:03.350Z,19.60
2022-10-31T11:08:37.431Z,19.83
2022-10-31T11:11:32.176Z,19.74
2022-10-31T11:14:14.332Z,19.83
2022-10-31T11:16:42.790Z,20.02
2022-10-31T11:19:25.308Z,20.21
2022-10-31T11:21:54.247Z,20.28
2022-10-31T11:24:27.298Z,20.47
2022-10-31T11:27:14.519Z,20.67
2022-10-31T11:29:41.407Z,20.80
2022-10-31T11:32:25.077Z,20.84
2022-10-31T11:34:56.219Z,20.88
2022-10-31T11:37:27.425Z,20.98
2022-10-31T11:39:57.608Z,20.89
2022-10-31T11:42:30.269Z,20.93
2022-10-31T11:44:57.886Z,20.79
2022-10-31T11:47:33.579Z,20.85
2022-10-31T11:50:09.800Z,20.82
2022-10-31T11:52:40.791Z,20.70
2022-10-31T11:55:13.997Z,20.70
2022-10-31T11:57:53.286Z,20.57
2022-10-31T12:00:24.823Z,20.61
2022-10-31T12:02:52.699Z,20.50
2022-10-31T12:05:26.131Z,20.43
2022-10-31T12:07:52.870Z,20.35
2022-10-31T12:10:28.476Z,20.28
2022-10-31T12:13:41.009Z,20.14
2022-10-31T12:16:35.224Z,20.04
2022-10-31T12:19:20.931Z,19.92
2022-10-31T12:22:11.985Z,19.83
2022-10-31T12:24:54.901Z,19.82
2022-10-31T12:28:01.149Z,19.81
2022-10-31T12:30:54.223Z,19.67
2022-10-31T12:33:26.928Z,19.69
2022-10-31T12:36:02.092Z,19.71
2022-10-31T12:38:59.064Z,19.49
2022-10-31T12:41:31.673Z,19.59
2022-10-31T12:44:22.727Z,19.44
2022-10-31T12:47:10.739Z,19.57
2022-10-31T12:49:43.542Z,19.56
2022-10-31T12:52:45.699Z,19.50
2022-10-31T12:55:38.768Z,19.60
2022-10-31T12:58:18.795Z,19.45
2022-10-31T13:00:52.059Z,19.53
2022-10-31T13:03:40.290Z,19.67
2022-10-31T13:06:15.382Z,19.71
2022-10-31T13:08:52.640Z,19.76
2022-10-31T13:11:46.465Z,19.95
2022-10-31T13:14:45.384Z,20.00
2022-10-31T13:17:43.480Z,20.03
2022-10-31T13:20:30.029Z,20.06
2022-10-31T13:26:23.274Z,20.80
2022-10-31T13:29:06.810Z,21.09
2022-10-31T13:31:34.539Z,21.31
2022-10-31T13:34:13.532Z,21.61
2022-10-31T13:37:36.771Z,21.86
2022-10-31T13:40:34.168Z,22.11
2022-10-31T13:43:45.236Z,22.23
2022-10-31T13:46:35.481Z,22.41
2022-10-31T13:49:02.881Z,22.46
2022-10-31T13:51:33.497Z,22.58
2022-10-31T13:54:03.160Z,22.71
2022-10-31T13:56:35.115Z,22.82
2022-10-31T13:59:22.588Z,22.81
2022-10-31T14:01:56.045Z,22.80
2022-10-31T14:04:30.613Z,22.94
2022-10-31T14:07:12.128Z,23.02
2022-10-31T14:10:23.945Z,23.01
2022-10-31T14:12:51.477Z,22.99
2022-10-31T14:15:23.399Z,23.17
2022-10-31T14:17:54.883Z,23.23
2022-10-31T14:20:36.271Z,23.27
2022-10-31T14:23:43.355Z,23.25
2022-10-31T14:26:22.839Z,23.19
2022-10-31T14:28:51.708Z,23.19
2022-10-31T14:31:55.327Z,23.09
2022-10-31T14:34:35.639Z,23.04
2022-10-31T14:37:17.220Z,23.08
2022-10-31T14:40:24.126Z,23.03
2022-10-31T14:43:19.328Z,23.12
2022-10-31T14:46:11.804Z,23.15
2022-10-31T14:49:15.659Z,23.17
2022-10-31T14:51:48.396Z,23.10
2022-10-31T14:54:46.543Z,22.96
2022-10-31T14:57:23.148Z,22.84
2022-10-31T14:59:57.867Z,22.77
2022-10-31T15:02:38.840Z,22.75
2022-10-31T15:05:14.018Z,22.66
2022-10-31T15:07:55.206Z,22.50
2022-10-31T15:10:34.342Z,22.31
2022-10-31T15:13:19.552Z,22.00
2022-10-31T15:15:52.014Z,21.72
2022-10-31T15:18:23.333Z,21.46
2022-10-31T15:20:52.795Z,21.08
2022-10-31T15:23:29.334Z,20.86
2022-10-31T15:26:05.199Z,20.59
2022-10-31T15:28:32.429Z,20.28
2022-10-31T15:31:02.252Z,20.05
2022-10-31T15:33:38.247Z,19.75
2022-10-31T15:36:07.439Z,19.52
2022-10-31T15:38:40.071Z,19.28
2022-10-31T15:41:25.173Z,18.96
2022-10-31T15:43:53.071Z,18.78
2022-10-31T15:46:21.020Z,18.59
2022-10-31T15:48:49.237Z,18.41
2022-10-31T15:51:16.202Z,18.12
2022-10-31T15:53:49.181Z,17.89
2022-10-31T15:56:24.212Z,17.72
2022-10-31T15:58:54.021Z,17.37
2022-10-31T16:01:26.751Z,17.22
2022-10-31T16:04:13.597Z,17.10
2022-10-31T16:06:40.607Z,16.97
2022-10-31T16:09:24.866Z,16.72
2022-10-31T16:11:52.096Z,16.46
2022-10-31T16:14:28.206Z,16.45
2022-10-31T16:16:59.342Z,16.46
2022-10-31T16:19:32.184Z,16.23
2022-10-31T16:22:13.298Z,15.81
2022-10-31T16:25:00.803Z,15.50
2022-10-31T16:27:32.942Z,15.39
2022-10-31T16:30:05.018Z,15.36
2022-10-31T16:32:33.937Z,15.05
2022-10-31T16:35:09.173Z,14.88
2022-10-31T16:37:42.256Z,14.91
2022-10-31T16:40:14.178Z,14.59
2022-10-31T16:42:42.488Z,14.51
2022-10-31T16:45:19.494Z,14.48
2022-10-31T16:47:47.129Z,14.32
2022-10-31T16:50:25.256Z,14.34
2022-10-31T16:56:21.574Z,13.87
2022-10-31T16:58:48.384Z,13.76
2022-10-31T17:01:15.339Z,13.72
2022-10-31T17:03:42.156Z,13.56
2022-10-31T17:06:15.432Z,13.56
2022-10-31T17:08:42.344Z,13.48
2022-10-31T17:11:20.100Z,13.28
2022-10-31T17:13:46.896Z,13.25
2022-10-31T17:16:15.511Z,13.12
2022-10-31T17:18:44.851Z,13.11
2022-10-31T17:21:19.592Z,12.85
2022-10-31T17:23:46.596Z,12.90
2022-10-31T17:26:13.399Z,12.82
2022-10-31T17:28:40.172Z,12.66
2022-10-31T17:31:08.887Z,12.61
2022-10-31T17:33:35.613Z,12.38
2022-10-31T17:36:04.219Z,12.45
2022-10-31T17:38:30.957Z,12.41
2022-10-31T17:40:57.755Z,12.23
2022-10-31T17:43:27.234Z,12.21
2022-10-31T17:45:53.991Z,12.02
2022-10-31T17:48:20.724Z,12.05
2022-10-31T17:50:47.460Z,12.03
2022-10-31T17:53:15.878Z,11.80
2022-10-31T17:55:42.603Z,11.89
2022-10-31T17:58:12.414Z,11.75
2022-10-31T18:00:45.886Z,11.64
2022-10-31T18:03:15.622Z,11.46
2022-10-31T18:05:53.519Z,11.57
2022-10-31T18:08:20.644Z,11.62
2022-10-31T18:10:47.405Z,11.44
2022-10-31T18:13:14.124Z,11.25
2022-10-31T18:15:40.931Z,11.23
2022-10-31T18:18:07.618Z,11.18
2022-10-31T18:20:34.396Z,11.14
2022-10-31T18:23:01.130Z,11.19
2022-10-31T18:25:27.995Z,11.06
2022-10-31T18:27:54.838Z,10.93
2022-10-31T18:30:21.622Z,11.00
2022-10-31T18:32:52.429Z,10.91
2022-10-31T18:35:19.388Z,10.82
2022-10-31T18:37:46.283Z,10.86
2022-10-31T18:40:13.468Z,10.88
2022-10-31T18:42:40.200Z,10.80
2022-10-31T18:45:17.022Z,10.73
2022-10-31T18:47:54.511Z,10.74
2022-10-31T18:50:21.646Z,10.70
2022-10-31T18:52:48.368Z,10.64
2022-10-31T18:55:15.172Z,10.49
2022-10-31T18:57:41.875Z,10.64
2022-10-31T19:00:09.286Z,10.61
2022-10-31T19:02:36.769Z,10.44
2022-10-31T19:05:03.771Z,10.55
2022-10-31T19:07:31.072Z,10.46
2022-10-31T19:09:57.789Z,10.41
2022-10-31T19:12:24.527Z,10.44
2022-10-31T19:14:51.363Z,10.38
2022-10-31T19:17:18.895Z,10.23
2022-10-31T19:19:45.616Z,10.12
2022-10-31T19:22:12.333Z,10.24
2022-10-31T19:24:39.105Z,10.16
2022-10-31T19:27:05.828Z,10.05
2022-10-31T19:29:32.925Z,10.10
2022-10-31T19:31:59.643Z,10.19
2022-10-31T19:34:26.472Z,10.11
2022-10-31T19:36:53.807Z,10.13
2022-10-31T19:39:20.500Z,9.96
2022-10-31T19:41:49.820Z,10.01
2022-10-31T19:44:16.538Z,10.05
2022-10-31T19:46:53.338Z,10.06
2022-10-31T19:49:20.351Z,10.01
2022-10-31T19:51:47.616Z,10.11
2022-10-31T19:54:14.356Z,10.07
2022-10-31T19:56:41.165Z,9.93
2022-10-31T19:59:08.231Z,9.96
2022-10-31T20:01:35.270Z,9.89
2022-10-31T20:04:02.068Z,9.81
2022-10-31T20:06:32.700Z,9.81
2022-10-31T20:09:03.313Z,9.78
2022-10-31T20:11:30.114Z,9.72
2022-10-31T20:17:44.224Z,9.73
2022-10-31T20:20:11.489Z,9.80
2022-10-31T20:22:39.357Z,9.75
2022-10-31T20:25:06.816Z,9.78
2022-10-31T20:27:33.783Z,9.62
2022-10-31T20:30:00.645Z,9.74
2022-10-31T20:32:27.360Z,9.72
2022-10-31T20:34:54.219Z,9.74
2022-10-31T20:37:20.927Z,9.61
2022-10-31T20:39:48.746Z,9.74
2022-10-31T20:42:17.084Z,9.53
2022-10-31T20:44:43.843Z,9.56
2022-10-31T20:47:10.561Z,9.62
2022-10-31T20:49:37.360Z,9.65
2022-10-31T20:52:04.124Z,9.51
2022-10-31T20:54:30.856Z,9.54
2022-10-31T20:56:57.642Z,9.53
2022-10-31T20:59:24.398Z,9.56
2022-10-31T21:01:51.164Z,9.54
2022-10-31T21:04:18.063Z,9.40
2022-10-31T21:06:49.279Z,9.39
2022-10-31T21:09:17.841Z,9.38
2022-10-31T21:11:44.630Z,9.41
2022-10-31T21:14:11.407Z,9.39
2022-10-31T21:16:38.257Z,9.28
2022-10-31T21:19:05.373Z,9.36
2022-10-31T21:21:35.594Z,9.38
2022-10-31T21:24:10.513Z,9.32
2022-10-31T21:26:41.585Z,9.44
2022-10-31T21:29:10.574Z,9.40
2022-10-31T21:31:38.509Z,9.38
2022-10-31T21:34:05.902Z,9.34
2022-10-31T21:36:34.664Z,9.39
2022-10-31T21:39:01.400Z,9.32
2022-10-31T21:41:28.683Z,9.15
2022-10-31T21:43:55.887Z,9.18
2022-10-31T21:46:26.601Z,9.21
2022-10-31T21:48:55.866Z,9.19
2022-10-31T21:51:26.946Z,9.08
2022-10-31T21:54:13.279Z,9.07
2022-10-31T21:56:40.560Z,9.05
2022-10-31T21:59:07.757Z,8.87
2022-10-31T22:01:35.654Z,8.94
2022-10-31T22:04:03.992Z,9.00
2022-10-31T22:06:30.867Z,9.03
2022-10-31T22:09:04.299Z,8.93
2022-10-31T22:11:31.121Z,8.96
2022-10-31T22:14:00.757Z,8.96
2022-10-31T22:16:29.626Z,8.92
2022-10-31T22:18:58.943Z,8.93
2022-10-31T22:21:27.784Z,8.91
2022-10-31T22:24:00.612Z,8.73
2022-10-31T22:26:30.408Z,8.75
2022-10-31T22:28:59.663Z,8.86
2022-10-31T22:31:27.790Z,8.76
2022-10-31T22:33:55.784Z,8.83
2022-10-31T22:36:29.931Z,8.76
2022-10-31T22:38:57.808Z,8.81
2022-10-31T22:41:33.934Z,8.82
2022-10-31T22:44:01.995Z,8.75
2022-10-31T22:46:36.610Z,8.85
2022-10-31T22:49:09.011Z,8.76
2022-10-31T22:51:39.175Z,8.71
2022-10-31T22:54:09.924Z,8.54
2022-10-31T22:56:36.697Z,8.52
2022-10-31T22:59:03.837Z,8.49
2022-10-31T23:01:34.218Z,8.54
2022-10-31T23:04:01.892Z,8.55
2022-10-31T23:06:31.358Z,8.61
2022-10-31T23:09:03.433Z,8.60
2022-10-31T23:11:40.868Z,8.61
2022-10-31T23:14:16.498Z,8.49
2022-10-31T23:16:54.016Z,8.50
2022-10-31T23:19:29.505Z,8.39
2022-10-31T23:22:04.058Z,8.51
2022-10-31T23:24:44.822Z,8.63
2022-10-31T23:27:17.413Z,8.65
2022-10-31T23:29:47.903Z,8.60
2022-10-31T23:32:28.986Z,8.54
2022-10-31T23:34:59.369Z,8.40
2022-10-31T23:37:30.294Z,8.45
2022-10-31T23:39:57.928Z,8.48
2022-10-31T23:42:25.895Z,8.50
2022-10-31T23:44:52.938Z,8.55
2022-10-31T23:47:21.174Z,8.60
2022-10-31T23:49:48.151Z,8.47
2022-10-31T23:52:15.948Z,8.44
2022-10-31T23:54:43.016Z,8.51
2022-10-31T23:57:12.979Z,8.49
2022-10-31T23:59:39.810Z,8.58
